createdAt,value
2018-08-22T00:00:37.535Z,24.40
2018-08-22T00:03:08.982Z,24.50
2018-08-22T00:05:40.248Z,24.50
2018-08-22T00:08:11.395Z,24.30
2018-08-22T00:10:42.616Z,24.30
2018-08-22T00:13:14.022Z,24.30
2018-08-22T00:15:45.420Z,24.00
2018-08-22T00:18:16.558Z,23.80
2018-08-22T00:20:47.595Z,24.00
2018-08-22T00:23:19.345Z,24.00
2018-08-22T00:25:50.768Z,23.80
2018-08-22T00:28:22.392Z,23.80
2018-08-22T00:30:54.077Z,23.80
2018-08-22T00:33:25.108Z,23.90
2018-08-22T00:35:56.781Z,23.90
2018-08-22T00:38:28.067Z,23.80
2018-08-22T00:40:59.267Z,23.80
2018-08-22T00:43:30.726Z,23.80
2018-08-22T00:46:02.319Z,23.70
2018-08-22T00:48:33.624Z,23.80
2018-08-22T00:51:05.487Z,23.60
2018-08-22T00:53:37.039Z,23.70
2018-08-22T00:56:08.372Z,23.70
2018-08-22T00:58:39.585Z,23.80
2018-08-22T01:01:10.736Z,23.80
2018-08-22T01:03:42.000Z,23.80
2018-08-22T01:06:13.319Z,23.80
2018-08-22T01:08:44.556Z,23.80
2018-08-22T01:11:16.215Z,23.60
2018-08-22T01:13:47.479Z,23.60
2018-08-22T01:16:18.707Z,23.70
2018-08-22T01:18:50.365Z,23.70
2018-08-22T01:21:21.675Z,23.60
2018-08-22T01:23:52.699Z,23.60
2018-08-22T01:26:23.861Z,23.60
2018-08-22T01:28:55.045Z,23.60
2018-08-22T01:31:25.999Z,23.50
2018-08-22T01:33:57.458Z,23.50
2018-08-22T01:36:28.805Z,23.40
2018-08-22T01:38:59.994Z,23.50
2018-08-22T01:41:31.425Z,23.50
2018-08-22T01:44:02.756Z,23.40
2018-08-22T01:46:33.977Z,23.30
2018-08-22T01:49:05.019Z,23.20
2018-08-22T01:51:36.154Z,23.20
2018-08-22T01:54:07.476Z,23.10
2018-08-22T01:56:38.717Z,23.10
2018-08-22T01:59:09.943Z,23.00
2018-08-22T02:01:42.171Z,23.00
2018-08-22T02:04:13.520Z,23.00
2018-08-22T02:06:44.863Z,22.90
2018-08-22T02:09:16.073Z,23.00
2018-08-22T02:11:48.019Z,23.00
2018-08-22T02:14:19.039Z,22.90
2018-08-22T02:16:50.326Z,23.00
2018-08-22T02:19:21.917Z,22.90
2018-08-22T02:21:53.499Z,22.80
2018-08-22T02:24:25.188Z,22.80
2018-08-22T02:26:56.372Z,22.70
2018-08-22T02:29:27.564Z,22.70
2018-08-22T02:31:58.764Z,22.70
2018-08-22T02:34:29.940Z,22.60
2018-08-22T02:37:02.196Z,22.60
2018-08-22T02:39:33.494Z,22.60
2018-08-22T02:42:04.774Z,22.50
2018-08-22T02:44:35.906Z,22.60
2018-08-22T02:47:06.916Z,22.60
2018-08-22T02:49:39.140Z,22.60
2018-08-22T02:52:10.439Z,22.60
2018-08-22T02:54:41.667Z,22.60
2018-08-22T02:57:12.658Z,22.60
2018-08-22T02:59:43.820Z,22.70
2018-08-22T03:02:14.843Z,22.60
2018-08-22T03:04:47.080Z,22.60
2018-08-22T03:07:18.583Z,22.60
2018-08-22T03:09:49.810Z,22.50
2018-08-22T03:12:21.438Z,22.40
2018-08-22T03:14:53.028Z,22.20
2018-08-22T03:17:24.174Z,22.20
2018-08-22T03:19:55.528Z,22.20
2018-08-22T03:22:26.723Z,22.20
2018-08-22T03:24:58.332Z,22.10
2018-08-22T03:27:29.664Z,22.20
2018-08-22T03:30:00.712Z,22.20
2018-08-22T03:32:32.055Z,22.20
2018-08-22T03:35:03.103Z,22.20
2018-08-22T03:37:34.317Z,22.20
2018-08-22T03:40:05.668Z,22.20
2018-08-22T03:42:36.840Z,22.10
2018-08-22T03:45:08.402Z,22.00
2018-08-22T03:47:39.607Z,21.90
2018-08-22T03:50:10.830Z,22.00
2018-08-22T03:52:41.808Z,22.00
2018-08-22T03:55:13.059Z,22.10
2018-08-22T03:57:44.377Z,22.00
2018-08-22T04:00:15.563Z,22.00
2018-08-22T04:02:46.772Z,21.90
2018-08-22T04:05:17.954Z,21.80
2018-08-22T04:07:48.998Z,21.80
2018-08-22T04:10:20.138Z,21.70
2018-08-22T04:12:51.452Z,21.70
2018-08-22T04:15:22.536Z,21.70
2018-08-22T04:17:53.543Z,21.70
2018-08-22T04:20:24.944Z,21.70
2018-08-22T04:22:56.167Z,21.80
2018-08-22T04:25:27.414Z,21.70
2018-08-22T04:27:58.969Z,21.60
2018-08-22T04:30:30.081Z,21.70
2018-08-22T04:33:01.052Z,21.70
2018-08-22T04:35:32.091Z,21.60
2018-08-22T04:38:03.457Z,21.60
2018-08-22T04:40:35.311Z,21.50
2018-08-22T04:43:06.699Z,21.40
2018-08-22T04:45:37.823Z,21.50
2018-08-22T04:48:08.845Z,21.50
2018-08-22T04:50:40.183Z,21.40
2018-08-22T04:53:11.395Z,21.30
2018-08-22T04:55:42.636Z,21.20
2018-08-22T04:58:14.042Z,21.10
2018-08-22T05:00:45.351Z,21.20
2018-08-22T05:03:16.535Z,21.20
2018-08-22T05:05:47.729Z,21.10
2018-08-22T05:08:18.923Z,21.10
2018-08-22T05:10:50.114Z,21.20
2018-08-22T05:13:21.304Z,21.10
2018-08-22T05:15:52.491Z,21.20
2018-08-22T05:18:23.486Z,21.10
2018-08-22T05:20:54.490Z,21.20
2018-08-22T05:23:25.466Z,21.30
2018-08-22T05:25:56.533Z,21.30
2018-08-22T05:28:27.859Z,21.30
2018-08-22T05:30:59.070Z,21.40
2018-08-22T05:33:30.453Z,21.40
2018-08-22T05:36:01.498Z,21.40
2018-08-22T05:38:32.872Z,21.40
2018-08-22T05:41:04.203Z,21.40
2018-08-22T05:43:35.438Z,21.50
2018-08-22T05:46:06.736Z,21.50
2018-08-22T05:48:37.997Z,21.30
2018-08-22T05:51:08.995Z,21.40
2018-08-22T05:53:40.901Z,21.40
2018-08-22T05:56:12.146Z,21.50
2018-08-22T05:58:43.135Z,21.60
2018-08-22T06:01:14.332Z,21.60
2018-08-22T06:03:45.511Z,21.50
2018-08-22T06:06:16.763Z,21.60
2018-08-22T06:08:48.420Z,21.70
2018-08-22T06:11:19.504Z,21.80
2018-08-22T06:13:50.719Z,21.80
2018-08-22T06:16:22.425Z,21.70
2018-08-22T06:18:53.710Z,21.70
2018-08-22T06:21:25.064Z,21.80
2018-08-22T06:23:56.068Z,21.80
2018-08-22T06:26:27.556Z,21.80
2018-08-22T06:28:58.810Z,21.70
2018-08-22T06:31:29.853Z,21.80
2018-08-22T06:34:01.053Z,21.60
2018-08-22T06:36:32.193Z,21.60
2018-08-22T06:39:03.549Z,21.50
2018-08-22T06:41:35.236Z,21.80
2018-08-22T06:44:06.681Z,22.00
2018-08-22T06:46:37.996Z,22.10
2018-08-22T06:49:09.554Z,21.90
2018-08-22T06:51:40.696Z,21.90
2018-08-22T06:54:11.924Z,22.00
2018-08-22T06:56:42.927Z,22.20
2018-08-22T06:59:13.937Z,22.30
2018-08-22T07:01:45.110Z,22.50
2018-08-22T07:04:17.166Z,22.40
2018-08-22T07:06:48.448Z,22.40
2018-08-22T07:09:19.528Z,22.40
2018-08-22T07:11:51.238Z,22.40
2018-08-22T07:14:22.264Z,22.50
2018-08-22T07:16:53.428Z,22.70
2018-08-22T07:19:24.443Z,22.60
2018-08-22T07:21:55.895Z,22.60
2018-08-22T07:24:27.215Z,22.60
2018-08-22T07:26:58.393Z,22.80
2018-08-22T07:29:29.954Z,22.80
2018-08-22T07:32:01.003Z,23.10
2018-08-22T07:34:32.363Z,23.30
2018-08-22T07:37:03.574Z,23.30
2018-08-22T07:39:34.727Z,23.50
2018-08-22T07:42:05.988Z,23.50
2018-08-22T07:44:37.622Z,23.70
2018-08-22T07:47:08.757Z,23.70
2018-08-22T07:49:40.386Z,23.70
2018-08-22T07:52:12.450Z,23.90
2018-08-22T07:54:45.278Z,24.30
2018-08-22T07:57:18.220Z,24.50
2018-08-22T07:59:49.576Z,24.80
2018-08-22T08:02:20.819Z,24.90
2018-08-22T08:04:52.168Z,24.80
2018-08-22T08:07:23.364Z,25.20
2018-08-22T08:09:54.595Z,25.50
2018-08-22T08:12:30.804Z,25.40
2018-08-22T08:15:05.203Z,25.60
2018-08-22T08:17:36.431Z,26.00
2018-08-22T08:20:07.794Z,25.70
2018-08-22T08:22:39.223Z,25.70
2018-08-22T08:25:10.572Z,26.10
2018-08-22T08:27:41.997Z,26.50
2018-08-22T08:30:13.371Z,26.30
2018-08-22T08:32:44.720Z,26.10
2018-08-22T08:35:15.985Z,26.50
2018-08-22T08:37:47.320Z,27.60
2018-08-22T08:40:18.476Z,27.70
2018-08-22T08:42:50.009Z,27.90
2018-08-22T08:45:21.076Z,27.60
2018-08-22T08:47:52.269Z,27.40
2018-08-22T08:50:23.672Z,28.00
2018-08-22T08:52:54.900Z,28.70
2018-08-22T08:55:26.032Z,28.10
2018-08-22T08:57:57.404Z,27.60
2018-08-22T09:00:28.640Z,27.60
2018-08-22T09:02:59.792Z,27.40
2018-08-22T09:05:30.811Z,28.00
2018-08-22T09:08:01.783Z,28.60
2018-08-22T09:10:33.059Z,28.80
2018-08-22T09:13:04.407Z,28.80
2018-08-22T09:15:36.069Z,28.70
2018-08-22T09:18:07.368Z,28.90
2018-08-22T09:20:38.826Z,29.30
2018-08-22T09:23:10.315Z,29.20
2018-08-22T09:25:41.520Z,29.70
2018-08-22T09:28:12.684Z,29.70
2018-08-22T09:30:43.875Z,29.30
2018-08-22T09:33:15.067Z,30.20
2018-08-22T09:35:46.293Z,30.30
2018-08-22T09:38:17.443Z,29.90
2018-08-22T09:40:49.317Z,29.70
2018-08-22T09:43:20.494Z,30.30
2018-08-22T09:45:51.653Z,30.00
2018-08-22T09:48:22.851Z,30.20
2018-08-22T09:50:54.094Z,30.00
2018-08-22T09:53:25.678Z,30.00
2018-08-22T09:55:57.002Z,29.70
2018-08-22T09:58:28.384Z,29.70
2018-08-22T10:02:05.047Z,30.70
2018-08-22T10:04:36.523Z,31.90
2018-08-22T10:07:08.488Z,32.70
2018-08-22T10:09:39.619Z,32.10
2018-08-22T10:12:11.019Z,31.90
2018-08-22T10:14:42.289Z,32.00
2018-08-22T10:17:13.415Z,31.90
2018-08-22T10:19:45.108Z,32.70
2018-08-22T10:22:16.366Z,33.10
2018-08-22T10:24:47.630Z,32.40
2018-08-22T10:27:18.977Z,32.10
2018-08-22T10:29:50.583Z,33.40
2018-08-22T10:32:22.022Z,33.50
2018-08-22T10:34:53.273Z,33.10
2018-08-22T10:37:24.947Z,33.40
2018-08-22T10:39:56.113Z,34.00
2018-08-22T10:42:27.064Z,34.30
2018-08-22T10:44:58.914Z,33.80
2018-08-22T10:47:30.212Z,33.40
2018-08-22T10:50:01.413Z,33.60
2018-08-22T10:52:32.633Z,32.90
2018-08-22T10:55:04.731Z,33.20
2018-08-22T10:57:35.936Z,33.50
2018-08-22T11:00:07.456Z,34.30
2018-08-22T11:02:38.719Z,34.70
2018-08-22T11:05:09.921Z,34.40
2018-08-22T11:07:41.111Z,34.50
2018-08-22T11:10:13.093Z,34.70
2018-08-22T11:12:44.288Z,35.20
2018-08-22T11:15:15.472Z,35.80
2018-08-22T11:17:46.676Z,36.20
2018-08-22T11:20:17.888Z,35.10
2018-08-22T11:23:04.997Z,35.70
2018-08-22T11:25:52.511Z,35.90
2018-08-22T11:28:39.825Z,36.00
2018-08-22T11:31:27.517Z,36.50
2018-08-22T11:34:14.648Z,36.40
2018-08-22T11:36:57.243Z,36.30
2018-08-22T11:39:28.327Z,36.70
2018-08-22T11:41:59.652Z,36.90
2018-08-22T11:44:31.041Z,37.10
2018-08-22T11:47:02.546Z,37.30
2018-08-22T11:49:33.996Z,37.20
2018-08-22T11:52:05.281Z,36.50
2018-08-22T11:54:37.204Z,35.60
2018-08-22T11:57:08.434Z,35.80
2018-08-22T11:59:39.736Z,35.60
2018-08-22T12:02:10.739Z,35.00
2018-08-22T12:04:42.100Z,35.20
2018-08-22T12:07:13.272Z,35.30
2018-08-22T12:09:44.477Z,35.50
2018-08-22T12:12:15.663Z,35.70
2018-08-22T12:14:46.689Z,35.30
2018-08-22T12:17:18.098Z,35.40
2018-08-22T12:19:49.565Z,35.70
2018-08-22T12:22:20.979Z,35.80
2018-08-22T12:24:52.258Z,36.20
2018-08-22T12:27:24.109Z,35.80
2018-08-22T12:29:55.408Z,35.90
2018-08-22T12:32:26.571Z,36.10
2018-08-22T12:34:57.795Z,37.00
2018-08-22T12:37:28.967Z,37.40
2018-08-22T12:40:00.155Z,36.50
2018-08-22T12:42:31.641Z,36.40
2018-08-22T12:45:02.746Z,36.50
2018-08-22T12:47:33.923Z,36.50
2018-08-22T12:50:05.649Z,36.80
2018-08-22T12:52:37.428Z,37.20
2018-08-22T12:55:08.611Z,37.30
2018-08-22T12:57:39.857Z,37.10
2018-08-22T13:00:11.347Z,37.30
2018-08-22T13:02:42.645Z,37.40
2018-08-22T13:05:13.675Z,36.80
2018-08-22T13:07:45.041Z,37.10
2018-08-22T13:10:16.067Z,37.10
2018-08-22T13:12:47.415Z,37.70
2018-08-22T13:15:18.891Z,38.10
2018-08-22T13:17:50.220Z,37.50
2018-08-22T13:20:21.579Z,38.30
2018-08-22T13:22:52.814Z,38.20
2018-08-22T13:25:25.142Z,37.70
2018-08-22T13:27:56.349Z,37.60
2018-08-22T13:30:27.817Z,37.30
2018-08-22T13:32:59.127Z,37.40
2018-08-22T13:35:30.140Z,37.00
2018-08-22T13:38:01.326Z,37.60
2018-08-22T13:40:32.492Z,38.00
2018-08-22T13:43:03.729Z,38.10
2018-08-22T13:45:34.848Z,37.70
2018-08-22T13:48:06.091Z,37.30
2018-08-22T13:50:37.302Z,37.20
2018-08-22T13:53:09.476Z,36.80
2018-08-22T13:55:40.987Z,37.30
2018-08-22T13:58:12.218Z,37.70
2018-08-22T14:00:44.072Z,38.10
2018-08-22T14:03:15.380Z,38.00
2018-08-22T14:05:46.564Z,38.10
2018-08-22T14:08:17.771Z,37.90
2018-08-22T14:10:48.951Z,37.30
2018-08-22T14:13:20.119Z,37.20
2018-08-22T14:15:51.342Z,36.20
2018-08-22T14:18:22.389Z,35.60
2018-08-22T14:20:53.732Z,35.50
2018-08-22T14:23:24.905Z,35.40
2018-08-22T14:25:56.496Z,36.30
2018-08-22T14:28:27.675Z,37.00
2018-08-22T14:30:58.883Z,36.90
2018-08-22T14:33:30.421Z,36.90
2018-08-22T14:36:01.723Z,36.80
2018-08-22T14:38:33.070Z,35.80
2018-08-22T14:41:05.042Z,35.90
2018-08-22T14:43:36.000Z,35.70
2018-08-22T14:46:07.236Z,36.00
2018-08-22T14:48:38.580Z,36.30
2018-08-22T14:51:09.819Z,36.50
2018-08-22T14:53:41.168Z,36.60
2018-08-22T14:56:12.632Z,36.20
2018-08-22T14:58:43.764Z,35.70
2018-08-22T15:01:14.952Z,35.50
2018-08-22T15:03:45.948Z,35.30
2018-08-22T15:06:16.952Z,35.00
2018-08-22T15:08:48.436Z,34.90
2018-08-22T15:11:20.380Z,35.30
2018-08-22T15:13:51.672Z,35.40
2018-08-22T15:16:22.695Z,35.60
2018-08-22T15:19:00.187Z,35.30
2018-08-22T15:21:31.478Z,34.90
2018-08-22T15:24:02.749Z,34.60
2018-08-22T15:26:34.049Z,34.20
2018-08-22T15:29:05.371Z,34.30
2018-08-22T15:31:36.577Z,34.50
2018-08-22T15:34:08.034Z,34.60
2018-08-22T15:36:39.282Z,34.80
2018-08-22T15:39:11.843Z,34.80
2018-08-22T15:41:43.036Z,34.80
2018-08-22T15:44:14.243Z,34.50
2018-08-22T15:46:45.435Z,34.20
2018-08-22T15:49:16.644Z,34.30
2018-08-22T15:51:47.845Z,34.20
2018-08-22T15:54:19.028Z,34.10
2018-08-22T15:56:50.642Z,34.30
2018-08-22T15:59:21.869Z,34.40
2018-08-22T16:01:53.223Z,34.30
2018-08-22T16:04:24.579Z,34.20
2018-08-22T16:07:15.181Z,34.30
2018-08-22T16:09:46.407Z,34.10
2018-08-22T16:12:17.617Z,34.10
2018-08-22T16:14:49.039Z,34.00
2018-08-22T16:17:20.389Z,33.90
2018-08-22T16:19:51.626Z,33.90
2018-08-22T16:22:22.749Z,33.70
2018-08-22T16:24:54.306Z,33.80
2018-08-22T16:27:25.913Z,33.70
2018-08-22T16:29:57.407Z,33.80
2018-08-22T16:32:28.719Z,33.80
2018-08-22T16:34:59.692Z,33.70
2018-08-22T16:37:31.565Z,33.90
2018-08-22T16:40:02.707Z,33.90
2018-08-22T16:42:38.963Z,33.90
2018-08-22T16:45:10.375Z,33.90
2018-08-22T16:47:42.367Z,33.80
2018-08-22T16:50:13.934Z,33.70
2018-08-22T16:52:44.936Z,33.50
2018-08-22T16:55:22.171Z,33.20
2018-08-22T16:57:54.375Z,33.20
2018-08-22T17:00:36.118Z,33.40
2018-08-22T17:03:08.234Z,33.50
2018-08-22T17:05:39.555Z,33.50
2018-08-22T17:08:10.594Z,33.40
2018-08-22T17:10:57.411Z,33.50
2018-08-22T17:13:43.037Z,33.50
2018-08-22T17:16:14.334Z,33.40
2018-08-22T17:18:45.459Z,33.30
2018-08-22T17:21:18.325Z,33.20
2018-08-22T17:23:49.803Z,33.20
2018-08-22T17:26:22.120Z,33.20
2018-08-22T17:28:55.685Z,33.00
2018-08-22T17:31:28.110Z,32.90
2018-08-22T17:34:01.646Z,32.90
2018-08-22T17:36:32.992Z,32.80
2018-08-22T17:39:04.751Z,32.80
2018-08-22T17:41:36.206Z,32.80
2018-08-22T17:44:10.387Z,32.80
2018-08-22T17:46:51.153Z,32.80
2018-08-22T17:49:22.567Z,32.80
2018-08-22T17:52:06.917Z,32.80
2018-08-22T17:54:38.443Z,32.60
2018-08-22T17:57:20.821Z,32.70
2018-08-22T17:59:52.927Z,32.60
2018-08-22T18:02:24.084Z,32.60
2018-08-22T18:05:00.651Z,32.60
2018-08-22T18:07:31.775Z,32.60
2018-08-22T18:10:04.997Z,32.30
2018-08-22T18:12:36.085Z,32.20
2018-08-22T18:15:07.839Z,32.00
2018-08-22T18:17:39.067Z,32.00
2018-08-22T18:20:10.495Z,31.80
2018-08-22T18:22:41.824Z,31.80
2018-08-22T18:25:13.069Z,31.60
2018-08-22T18:27:44.767Z,31.40
2018-08-22T18:30:15.832Z,31.50
2018-08-22T18:32:47.960Z,31.40
2018-08-22T18:35:19.208Z,31.30
2018-08-22T18:37:50.591Z,31.30
2018-08-22T18:40:28.084Z,31.20
2018-08-22T18:43:08.663Z,31.00
2018-08-22T18:45:56.503Z,30.90
2018-08-22T18:48:28.191Z,30.90
2018-08-22T18:50:59.832Z,30.90
2018-08-22T18:53:31.403Z,30.90
2018-08-22T18:56:16.416Z,30.80
2018-08-22T18:58:47.919Z,30.70
2018-08-22T19:01:19.360Z,30.60
2018-08-22T19:03:51.979Z,30.50
2018-08-22T19:06:22.979Z,30.40
2018-08-22T19:08:54.045Z,30.30
2018-08-22T19:11:25.367Z,30.10
2018-08-22T19:13:56.819Z,30.10
2018-08-22T19:16:28.236Z,30.10
2018-08-22T19:18:59.552Z,30.10
2018-08-22T19:21:30.570Z,29.90
2018-08-22T19:24:04.658Z,29.70
2018-08-22T19:26:35.821Z,29.60
2018-08-22T19:29:07.595Z,29.50
2018-08-22T19:31:44.160Z,29.50
2018-08-22T19:34:15.340Z,29.60
2018-08-22T19:36:46.540Z,29.60
2018-08-22T19:39:17.733Z,29.30
2018-08-22T19:41:48.723Z,29.10
2018-08-22T19:44:19.916Z,29.00
2018-08-22T19:46:51.387Z,29.10
2018-08-22T19:49:22.537Z,29.20
2018-08-22T19:51:53.928Z,29.30
2018-08-22T19:54:26.934Z,29.30
2018-08-22T19:56:58.242Z,29.30
2018-08-22T19:59:29.415Z,29.10
2018-08-22T20:02:00.439Z,28.80
2018-08-22T20:04:33.685Z,28.60
2018-08-22T20:07:04.975Z,28.50
2018-08-22T20:09:41.151Z,28.40
2018-08-22T20:12:13.218Z,28.50
2018-08-22T20:14:52.033Z,28.50
2018-08-22T20:17:31.684Z,28.60
2018-08-22T20:20:03.700Z,28.80
2018-08-22T20:22:43.982Z,28.90
2018-08-22T20:25:15.595Z,28.70
2018-08-22T20:27:46.719Z,28.60
2018-08-22T20:30:19.060Z,28.50
2018-08-22T20:32:59.836Z,28.60
2018-08-22T20:35:38.053Z,28.80
2018-08-22T20:38:10.570Z,28.90
2018-08-22T20:40:41.570Z,28.90
2018-08-22T20:43:31.113Z,28.90
2018-08-22T20:46:02.963Z,28.90
2018-08-22T20:48:35.243Z,28.80
2018-08-22T20:51:06.519Z,28.80
2018-08-22T20:53:38.684Z,28.70
2018-08-22T20:56:09.930Z,28.70
2018-08-22T20:58:43.499Z,28.60
2018-08-22T21:01:14.680Z,28.60
2018-08-22T21:03:46.247Z,28.60
2018-08-22T21:06:17.272Z,28.60
2018-08-22T21:08:48.458Z,28.60
2018-08-22T21:11:19.463Z,28.50
2018-08-22T21:13:51.178Z,28.50
2018-08-22T21:16:22.626Z,28.50
2018-08-22T21:18:53.809Z,28.40
2018-08-22T21:21:25.471Z,28.40
2018-08-22T21:23:56.609Z,28.30
2018-08-22T21:26:44.819Z,28.30
2018-08-22T21:29:15.823Z,28.20
2018-08-22T21:31:47.145Z,28.10
2018-08-22T21:34:23.691Z,28.10
2018-08-22T21:36:55.275Z,28.00
2018-08-22T21:39:27.503Z,27.90
2018-08-22T21:41:59.008Z,27.90
2018-08-22T21:44:30.335Z,27.90
2018-08-22T21:47:06.463Z,27.80
2018-08-22T21:49:37.779Z,27.70
2018-08-22T21:52:09.056Z,27.60
2018-08-22T21:54:40.393Z,27.50
2018-08-22T21:57:11.432Z,27.50
2018-08-22T21:59:42.760Z,27.40
2018-08-22T22:02:15.168Z,27.40
2018-08-22T22:04:46.983Z,27.40
2018-08-22T22:07:18.116Z,27.40
2018-08-22T22:09:50.943Z,27.30
2018-08-22T22:12:27.062Z,27.30
2018-08-22T22:14:58.383Z,27.20
2018-08-22T22:17:29.709Z,27.20
2018-08-22T22:20:01.063Z,27.20
2018-08-22T22:22:32.250Z,27.10
2018-08-22T22:25:03.555Z,27.10
2018-08-22T22:27:34.960Z,27.00
2018-08-22T22:30:07.162Z,27.00
2018-08-22T22:34:46.255Z,27.00
2018-08-22T22:37:18.090Z,26.90
2018-08-22T22:39:49.944Z,26.80
2018-08-22T22:42:26.771Z,26.80
2018-08-22T22:44:59.090Z,26.80
2018-08-22T22:47:31.465Z,26.70
2018-08-22T22:50:03.366Z,26.70
2018-08-22T22:52:40.355Z,26.70
2018-08-22T22:55:12.043Z,26.60
2018-08-22T22:57:44.336Z,26.60
2018-08-22T23:00:16.486Z,26.60
2018-08-22T23:02:52.504Z,26.60
2018-08-22T23:05:28.068Z,26.50
2018-08-22T23:08:00.437Z,26.30
2018-08-22T23:10:31.471Z,26.20
2018-08-22T23:13:02.457Z,26.20
2018-08-22T23:15:34.508Z,26.10
2018-08-22T23:18:05.919Z,26.10
2018-08-22T23:20:39.255Z,26.10
2018-08-22T23:23:29.257Z,26.10
2018-08-22T23:26:07.400Z,26.00
2018-08-22T23:28:38.709Z,26.00
2018-08-22T23:31:09.720Z,26.00
2018-08-22T23:33:40.735Z,26.00
2018-08-22T23:36:11.879Z,25.90
2018-08-22T23:38:43.067Z,25.90
2018-08-22T23:41:14.262Z,25.80
2018-08-22T23:43:51.042Z,25.80
2018-08-22T23:46:22.172Z,25.70
2018-08-22T23:48:59.126Z,25.60
2018-08-22T23:51:30.255Z,25.60
2018-08-22T23:54:01.629Z,25.60
2018-08-22T23:56:32.808Z,25.60
2018-08-22T23:59:03.871Z,25.40
